sensor_id;sensor_type;location;lat;lon;timestamp;temperature;humidity
20911;DHT22;10615;42.702;23.314;2023-08-24T00:00:46;23.70;73.10
20911;DHT22;10615;42.702;23.314;2023-08-24T00:01:47;23.80;73.10
20911;DHT22;10615;42.702;23.314;2023-08-24T00:02:48;23.80;73.30
20911;DHT22;10615;42.702;23.314;2023-08-24T00:03:48;23.80;73.40
20911;DHT22;10615;42.702;23.314;2023-08-24T00:04:49;23.70;73.40
20911;DHT22;10615;42.702;23.314;2023-08-24T00:05:50;23.70;73.60
20911;DHT22;10615;42.702;23.314;2023-08-24T00:06:52;23.70;73.70
20911;DHT22;10615;42.702;23.314;2023-08-24T00:07:52;23.70;73.70
20911;DHT22;10615;42.702;23.314;2023-08-24T00:08:53;23.70;73.80
20911;DHT22;10615;42.702;23.314;2023-08-24T00:09:54;23.70;73.90
20911;DHT22;10615;42.702;23.314;2023-08-24T00:10:54;23.70;74.00
20911;DHT22;10615;42.702;23.314;2023-08-24T00:11:55;23.70;74.20
20911;DHT22;10615;42.702;23.314;2023-08-24T00:12:56;23.70;74.30
20911;DHT22;10615;42.702;23.314;2023-08-24T00:13:57;23.70;74.30
20911;DHT22;10615;42.702;23.314;2023-08-24T00:14:57;23.70;74.50
20911;DHT22;10615;42.702;23.314;2023-08-24T00:15:58;23.60;74.50
20911;DHT22;10615;42.702;23.314;2023-08-24T00:16:59;23.60;74.60
20911;DHT22;10615;42.702;23.314;2023-08-24T00:17:59;23.60;74.80
20911;DHT22;10615;42.702;23.314;2023-08-24T00:19:00;23.60;74.90
20911;DHT22;10615;42.702;23.314;2023-08-24T00:20:01;23.50;75.00
20911;DHT22;10615;42.702;23.314;2023-08-24T00:21:04;23.50;75.20
20911;DHT22;10615;42.702;23.314;2023-08-24T00:22:05;23.50;75.30
20911;DHT22;10615;42.702;23.314;2023-08-24T00:23:06;23.50;75.40
20911;DHT22;10615;42.702;23.314;2023-08-24T00:24:06;23.50;75.40
20911;DHT22;10615;42.702;23.314;2023-08-24T00:25:08;23.50;75.40
20911;DHT22;10615;42.702;23.314;2023-08-24T00:26:09;23.50;75.40
20911;DHT22;10615;42.702;23.314;2023-08-24T00:27:09;23.50;75.40
20911;DHT22;10615;42.702;23.314;2023-08-24T00:28:10;23.50;75.40
20911;DHT22;10615;42.702;23.314;2023-08-24T00:29:11;23.60;75.50
20911;DHT22;10615;42.702;23.314;2023-08-24T00:30:12;23.50;75.50
20911;DHT22;10615;42.702;23.314;2023-08-24T00:31:15;23.60;75.60
20911;DHT22;10615;42.702;23.314;2023-08-24T00:32:16;23.60;75.60
20911;DHT22;10615;42.702;23.314;2023-08-24T00:33:18;23.60;75.60
20911;DHT22;10615;42.702;23.314;2023-08-24T00:34:19;23.60;75.70
20911;DHT22;10615;42.702;23.314;2023-08-24T00:35:20;23.50;75.60
20911;DHT22;10615;42.702;23.314;2023-08-24T00:36:21;23.50;75.70
20911;DHT22;10615;42.702;23.314;2023-08-24T00:37:23;23.50;75.80
20911;DHT22;10615;42.702;23.314;2023-08-24T00:38:24;23.50;75.90
20911;DHT22;10615;42.702;23.314;2023-08-24T00:39:25;23.50;75.90
20911;DHT22;10615;42.702;23.314;2023-08-24T00:40:26;23.50;76.00
20911;DHT22;10615;42.702;23.314;2023-08-24T00:41:27;23.40;75.90
20911;DHT22;10615;42.702;23.314;2023-08-24T00:42:27;23.40;75.90
20911;DHT22;10615;42.702;23.314;2023-08-24T00:43:28;23.40;75.70
20911;DHT22;10615;42.702;23.314;2023-08-24T00:44:29;23.40;75.60
20911;DHT22;10615;42.702;23.314;2023-08-24T00:45:30;23.30;75.60
20911;DHT22;10615;42.702;23.314;2023-08-24T00:46:34;23.30;75.70
20911;DHT22;10615;42.702;23.314;2023-08-24T00:47:40;23.30;75.70
20911;DHT22;10615;42.702;23.314;2023-08-24T00:48:41;23.30;75.80
20911;DHT22;10615;42.702;23.314;2023-08-24T00:49:42;23.20;75.70
20911;DHT22;10615;42.702;23.314;2023-08-24T00:50:43;23.20;75.90
20911;DHT22;10615;42.702;23.314;2023-08-24T00:51:43;23.10;76.00
20911;DHT22;10615;42.702;23.314;2023-08-24T00:52:44;23.10;76.10
20911;DHT22;10615;42.702;23.314;2023-08-24T00:53:47;23.00;76.30
20911;DHT22;10615;42.702;23.314;2023-08-24T00:54:48;23.00;76.60
20911;DHT22;10615;42.702;23.314;2023-08-24T00:55:48;23.00;76.60
20911;DHT22;10615;42.702;23.314;2023-08-24T00:56:49;23.00;76.80
20911;DHT22;10615;42.702;23.314;2023-08-24T00:57:50;22.90;77.70
20911;DHT22;10615;42.702;23.314;2023-08-24T00:58:53;22.90;77.00
20911;DHT22;10615;42.702;23.314;2023-08-24T00:59:55;22.80;77.10
20911;DHT22;10615;42.702;23.314;2023-08-24T01:00:57;22.80;77.40
20911;DHT22;10615;42.702;23.314;2023-08-24T01:01:59;22.70;77.50
20911;DHT22;10615;42.702;23.314;2023-08-24T01:03:00;22.70;77.80
20911;DHT22;10615;42.702;23.314;2023-08-24T01:04:00;22.70;78.00
20911;DHT22;10615;42.702;23.314;2023-08-24T01:05:03;22.70;78.10
20911;DHT22;10615;42.702;23.314;2023-08-24T01:06:05;22.70;78.20
20911;DHT22;10615;42.702;23.314;2023-08-24T01:07:06;22.70;78.10
20911;DHT22;10615;42.702;23.314;2023-08-24T01:08:08;22.70;78.20
20911;DHT22;10615;42.702;23.314;2023-08-24T01:09:09;22.70;78.10
20911;DHT22;10615;42.702;23.314;2023-08-24T01:10:10;22.70;79.10
20911;DHT22;10615;42.702;23.314;2023-08-24T01:13:36;22.70;78.50
20911;DHT22;10615;42.702;23.314;2023-08-24T01:14:52;22.70;78.50
20911;DHT22;10615;42.702;23.314;2023-08-24T01:16:13;22.70;78.50
20911;DHT22;10615;42.702;23.314;2023-08-24T01:17:21;22.60;78.40
20911;DHT22;10615;42.702;23.314;2023-08-24T01:18:23;22.60;78.40
20911;DHT22;10615;42.702;23.314;2023-08-24T01:20:36;22.60;78.60
20911;DHT22;10615;42.702;23.314;2023-08-24T01:21:38;22.50;78.70
20911;DHT22;10615;42.702;23.314;2023-08-24T01:23:13;22.50;78.90
20911;DHT22;10615;42.702;23.314;2023-08-24T01:24:30;22.50;79.20
20911;DHT22;10615;42.702;23.314;2023-08-24T01:25:38;22.50;79.20
20911;DHT22;10615;42.702;23.314;2023-08-24T01:26:41;22.50;79.40
20911;DHT22;10615;42.702;23.314;2023-08-24T01:27:43;22.40;79.50
20911;DHT22;10615;42.702;23.314;2023-08-24T01:28:45;22.40;79.70
20911;DHT22;10615;42.702;23.314;2023-08-24T01:29:45;22.40;79.80
20911;DHT22;10615;42.702;23.314;2023-08-24T01:30:47;22.40;80.10
20911;DHT22;10615;42.702;23.314;2023-08-24T01:31:48;22.40;80.00
20911;DHT22;10615;42.702;23.314;2023-08-24T01:32:50;22.30;80.00
20911;DHT22;10615;42.702;23.314;2023-08-24T01:33:50;22.30;80.00
20911;DHT22;10615;42.702;23.314;2023-08-24T01:34:51;22.20;80.10
20911;DHT22;10615;42.702;23.314;2023-08-24T01:35:52;22.20;80.40
20911;DHT22;10615;42.702;23.314;2023-08-24T01:36:52;22.10;80.50
20911;DHT22;10615;42.702;23.314;2023-08-24T01:37:53;22.00;80.70
20911;DHT22;10615;42.702;23.314;2023-08-24T01:40:27;22.00;81.30
20911;DHT22;10615;42.702;23.314;2023-08-24T01:41:36;21.90;81.40
20911;DHT22;10615;42.702;23.314;2023-08-24T01:42:51;21.90;81.50
20911;DHT22;10615;42.702;23.314;2023-08-24T01:43:53;21.90;81.80
20911;DHT22;10615;42.702;23.314;2023-08-24T01:44:57;21.90;81.80
20911;DHT22;10615;42.702;23.314;2023-08-24T01:46:00;21.90;82.00
20911;DHT22;10615;42.702;23.314;2023-08-24T01:47:04;21.90;82.00
20911;DHT22;10615;42.702;23.314;2023-08-24T01:48:06;21.90;82.00
20911;DHT22;10615;42.702;23.314;2023-08-24T01:49:08;21.90;82.10
20911;DHT22;10615;42.702;23.314;2023-08-24T01:50:10;21.90;82.00
20911;DHT22;10615;42.702;23.314;2023-08-24T01:51:11;22.00;82.00
20911;DHT22;10615;42.702;23.314;2023-08-24T01:52:12;21.90;82.00
20911;DHT22;10615;42.702;23.314;2023-08-24T01:53:14;22.00;82.00
20911;DHT22;10615;42.702;23.314;2023-08-24T01:54:14;21.90;81.80
20911;DHT22;10615;42.702;23.314;2023-08-24T01:55:18;22.00;81.90
20911;DHT22;10615;42.702;23.314;2023-08-24T01:56:20;22.00;81.90
20911;DHT22;10615;42.702;23.314;2023-08-24T01:57:20;22.00;81.90
20911;DHT22;10615;42.702;23.314;2023-08-24T01:58:21;22.00;81.80
20911;DHT22;10615;42.702;23.314;2023-08-24T01:59:22;22.00;81.80
20911;DHT22;10615;42.702;23.314;2023-08-24T02:00:23;22.00;81.80
20911;DHT22;10615;42.702;23.314;2023-08-24T02:01:23;22.00;81.80
20911;DHT22;10615;42.702;23.314;2023-08-24T02:02:24;22.00;81.80
20911;DHT22;10615;42.702;23.314;2023-08-24T02:03:25;22.00;81.80
20911;DHT22;10615;42.702;23.314;2023-08-24T02:04:26;22.00;81.80
20911;DHT22;10615;42.702;23.314;2023-08-24T02:05:26;22.00;81.80
20911;DHT22;10615;42.702;23.314;2023-08-24T02:06:29;22.00;82.00
20911;DHT22;10615;42.702;23.314;2023-08-24T02:07:30;22.00;82.10
20911;DHT22;10615;42.702;23.314;2023-08-24T02:08:30;22.00;82.10
20911;DHT22;10615;42.702;23.314;2023-08-24T02:09:31;21.90;82.20
20911;DHT22;10615;42.702;23.314;2023-08-24T02:10:32;21.90;82.30
20911;DHT22;10615;42.702;23.314;2023-08-24T02:11:32;21.90;82.40
20911;DHT22;10615;42.702;23.314;2023-08-24T02:12:33;21.90;82.40
20911;DHT22;10615;42.702;23.314;2023-08-24T02:13:34;21.90;82.50
20911;DHT22;10615;42.702;23.314;2023-08-24T02:14:35;22.00;82.70
20911;DHT22;10615;42.702;23.314;2023-08-24T02:15:37;21.90;82.60
20911;DHT22;10615;42.702;23.314;2023-08-24T02:16:39;21.90;82.70
20911;DHT22;10615;42.702;23.314;2023-08-24T02:17:40;21.90;82.70
20911;DHT22;10615;42.702;23.314;2023-08-24T02:18:40;21.90;82.70
20911;DHT22;10615;42.702;23.314;2023-08-24T02:19:42;21.90;82.80
20911;DHT22;10615;42.702;23.314;2023-08-24T02:20:43;21.90;82.90
20911;DHT22;10615;42.702;23.314;2023-08-24T02:21:43;21.90;83.10
20911;DHT22;10615;42.702;23.314;2023-08-24T02:22:44;21.90;83.30
20911;DHT22;10615;42.702;23.314;2023-08-24T02:23:45;21.90;83.40
20911;DHT22;10615;42.702;23.314;2023-08-24T02:24:46;21.90;83.50
20911;DHT22;10615;42.702;23.314;2023-08-24T02:25:47;21.90;83.60
20911;DHT22;10615;42.702;23.314;2023-08-24T02:26:47;21.90;83.60
20911;DHT22;10615;42.702;23.314;2023-08-24T02:27:48;21.90;83.70
20911;DHT22;10615;42.702;23.314;2023-08-24T02:28:49;21.90;83.70
20911;DHT22;10615;42.702;23.314;2023-08-24T02:29:50;21.90;83.70
20911;DHT22;10615;42.702;23.314;2023-08-24T02:30:50;22.00;83.70
20911;DHT22;10615;42.702;23.314;2023-08-24T02:31:51;22.00;83.60
20911;DHT22;10615;42.702;23.314;2023-08-24T02:32:52;22.00;83.60
20911;DHT22;10615;42.702;23.314;2023-08-24T02:33:52;22.00;83.50
20911;DHT22;10615;42.702;23.314;2023-08-24T02:34:53;22.00;83.30
20911;DHT22;10615;42.702;23.314;2023-08-24T02:35:54;22.00;83.20
20911;DHT22;10615;42.702;23.314;2023-08-24T02:36:56;22.00;83.20
20911;DHT22;10615;42.702;23.314;2023-08-24T02:37:56;22.00;83.10
20911;DHT22;10615;42.702;23.314;2023-08-24T02:38:58;22.00;83.00
20911;DHT22;10615;42.702;23.314;2023-08-24T02:39:58;22.00;83.00
20911;DHT22;10615;42.702;23.314;2023-08-24T02:41:06;22.00;83.00
20911;DHT22;10615;42.702;23.314;2023-08-24T02:42:07;22.10;82.90
20911;DHT22;10615;42.702;23.314;2023-08-24T02:43:08;22.10;82.80
20911;DHT22;10615;42.702;23.314;2023-08-24T02:44:09;22.10;82.60
20911;DHT22;10615;42.702;23.314;2023-08-24T02:45:09;22.10;82.40
20911;DHT22;10615;42.702;23.314;2023-08-24T02:46:10;22.10;82.30
20911;DHT22;10615;42.702;23.314;2023-08-24T02:47:11;22.10;82.30
20911;DHT22;10615;42.702;23.314;2023-08-24T02:48:11;22.10;82.30
20911;DHT22;10615;42.702;23.314;2023-08-24T02:49:12;22.10;82.30
20911;DHT22;10615;42.702;23.314;2023-08-24T02:50:13;22.10;82.40
20911;DHT22;10615;42.702;23.314;2023-08-24T02:51:13;22.10;82.50
20911;DHT22;10615;42.702;23.314;2023-08-24T02:52:14;22.10;82.60
20911;DHT22;10615;42.702;23.314;2023-08-24T02:53:15;22.00;82.60
20911;DHT22;10615;42.702;23.314;2023-08-24T02:54:15;22.00;82.70
20911;DHT22;10615;42.702;23.314;2023-08-24T02:55:16;22.00;83.00
20911;DHT22;10615;42.702;23.314;2023-08-24T02:56:17;22.00;83.00
20911;DHT22;10615;42.702;23.314;2023-08-24T02:57:18;22.00;83.00
20911;DHT22;10615;42.702;23.314;2023-08-24T02:58:18;22.00;83.00
20911;DHT22;10615;42.702;23.314;2023-08-24T02:59:19;22.00;83.90
20911;DHT22;10615;42.702;23.314;2023-08-24T03:00:20;22.10;83.10
20911;DHT22;10615;42.702;23.314;2023-08-24T03:01:20;22.10;83.00
20911;DHT22;10615;42.702;23.314;2023-08-24T03:02:21;22.10;83.10
20911;DHT22;10615;42.702;23.314;2023-08-24T03:03:23;22.10;83.10
20911;DHT22;10615;42.702;23.314;2023-08-24T03:04:24;22.00;83.00
20911;DHT22;10615;42.702;23.314;2023-08-24T03:05:24;22.00;83.20
20911;DHT22;10615;42.702;23.314;2023-08-24T03:06:25;22.00;83.40
20911;DHT22;10615;42.702;23.314;2023-08-24T03:07:26;22.00;83.50
20911;DHT22;10615;42.702;23.314;2023-08-24T03:08:27;22.00;83.70
20911;DHT22;10615;42.702;23.314;2023-08-24T03:09:28;22.00;83.80
20911;DHT22;10615;42.702;23.314;2023-08-24T03:10:28;22.00;83.90
20911;DHT22;10615;42.702;23.314;2023-08-24T03:11:29;22.00;83.90
20911;DHT22;10615;42.702;23.314;2023-08-24T03:12:29;21.90;83.90
20911;DHT22;10615;42.702;23.314;2023-08-24T03:13:30;21.90;83.90
20911;DHT22;10615;42.702;23.314;2023-08-24T03:14:31;21.90;84.10
20911;DHT22;10615;42.702;23.314;2023-08-24T03:15:32;21.90;84.20
20911;DHT22;10615;42.702;23.314;2023-08-24T03:16:33;21.90;84.30
20911;DHT22;10615;42.702;23.314;2023-08-24T03:17:34;21.90;84.40
20911;DHT22;10615;42.702;23.314;2023-08-24T03:18:34;21.90;84.40
20911;DHT22;10615;42.702;23.314;2023-08-24T03:19:35;21.80;84.50
20911;DHT22;10615;42.702;23.314;2023-08-24T03:20:36;21.80;84.50
20911;DHT22;10615;42.702;23.314;2023-08-24T03:21:36;21.80;84.70
20911;DHT22;10615;42.702;23.314;2023-08-24T03:22:37;21.80;84.80
20911;DHT22;10615;42.702;23.314;2023-08-24T03:23:38;21.70;84.90
20911;DHT22;10615;42.702;23.314;2023-08-24T03:24:39;21.70;84.90
20911;DHT22;10615;42.702;23.314;2023-08-24T03:25:41;21.70;85.20
20911;DHT22;10615;42.702;23.314;2023-08-24T03:26:41;21.70;85.40
20911;DHT22;10615;42.702;23.314;2023-08-24T03:27:42;21.60;85.50
20911;DHT22;10615;42.702;23.314;2023-08-24T03:28:43;21.60;85.80
20911;DHT22;10615;42.702;23.314;2023-08-24T03:29:44;21.60;86.10
20911;DHT22;10615;42.702;23.314;2023-08-24T03:30:50;21.60;86.30
20911;DHT22;10615;42.702;23.314;2023-08-24T03:31:51;21.50;86.30
20911;DHT22;10615;42.702;23.314;2023-08-24T03:32:51;21.50;86.60
20911;DHT22;10615;42.702;23.314;2023-08-24T03:33:52;21.40;87.00
20911;DHT22;10615;42.702;23.314;2023-08-24T03:35:01;21.40;87.20
20911;DHT22;10615;42.702;23.314;2023-08-24T03:36:02;21.40;87.60
20911;DHT22;10615;42.702;23.314;2023-08-24T03:37:03;21.40;87.90
20911;DHT22;10615;42.702;23.314;2023-08-24T03:38:04;21.40;88.10
20911;DHT22;10615;42.702;23.314;2023-08-24T03:39:05;21.40;88.10
20911;DHT22;10615;42.702;23.314;2023-08-24T03:40:06;21.40;88.20
20911;DHT22;10615;42.702;23.314;2023-08-24T03:41:07;21.40;88.20
20911;DHT22;10615;42.702;23.314;2023-08-24T03:42:08;21.40;88.30
20911;DHT22;10615;42.702;23.314;2023-08-24T03:43:08;21.40;88.30
20911;DHT22;10615;42.702;23.314;2023-08-24T03:44:12;21.40;88.20
20911;DHT22;10615;42.702;23.314;2023-08-24T03:45:20;21.40;88.30
20911;DHT22;10615;42.702;23.314;2023-08-24T03:46:21;21.40;88.50
20911;DHT22;10615;42.702;23.314;2023-08-24T03:47:21;21.40;88.50
20911;DHT22;10615;42.702;23.314;2023-08-24T03:48:25;21.40;88.60
20911;DHT22;10615;42.702;23.314;2023-08-24T03:49:25;21.50;88.70
20911;DHT22;10615;42.702;23.314;2023-08-24T03:50:26;21.40;88.80
20911;DHT22;10615;42.702;23.314;2023-08-24T03:51:27;21.40;89.10
20911;DHT22;10615;42.702;23.314;2023-08-24T03:52:28;21.40;89.10
20911;DHT22;10615;42.702;23.314;2023-08-24T03:53:29;21.50;89.20
20911;DHT22;10615;42.702;23.314;2023-08-24T03:54:29;21.40;89.10
20911;DHT22;10615;42.702;23.314;2023-08-24T03:55:30;21.40;89.20
20911;DHT22;10615;42.702;23.314;2023-08-24T03:56:33;21.40;89.50
20911;DHT22;10615;42.702;23.314;2023-08-24T03:57:34;21.40;89.70
20911;DHT22;10615;42.702;23.314;2023-08-24T03:58:35;21.40;89.90
20911;DHT22;10615;42.702;23.314;2023-08-24T03:59:35;21.40;90.00
20911;DHT22;10615;42.702;23.314;2023-08-24T04:00:37;21.40;90.00
20911;DHT22;10615;42.702;23.314;2023-08-24T04:01:38;21.40;90.00
20911;DHT22;10615;42.702;23.314;2023-08-24T04:02:42;21.40;90.10
20911;DHT22;10615;42.702;23.314;2023-08-24T04:03:42;21.40;90.10
20911;DHT22;10615;42.702;23.314;2023-08-24T04:04:43;21.40;90.20
20911;DHT22;10615;42.702;23.314;2023-08-24T04:05:44;21.40;90.30
20911;DHT22;10615;42.702;23.314;2023-08-24T04:06:45;21.50;90.30
20911;DHT22;10615;42.702;23.314;2023-08-24T04:07:45;21.50;90.30
20911;DHT22;10615;42.702;23.314;2023-08-24T04:08:46;21.50;90.20
20911;DHT22;10615;42.702;23.314;2023-08-24T04:09:47;21.50;90.20
20911;DHT22;10615;42.702;23.314;2023-08-24T04:10:48;21.50;90.10
20911;DHT22;10615;42.702;23.314;2023-08-24T04:11:48;21.50;90.00
20911;DHT22;10615;42.702;23.314;2023-08-24T04:12:49;21.60;90.00
20911;DHT22;10615;42.702;23.314;2023-08-24T04:13:49;21.50;90.00
20911;DHT22;10615;42.702;23.314;2023-08-24T04:14:50;21.50;90.00
20911;DHT22;10615;42.702;23.314;2023-08-24T04:15:52;21.50;90.00
20911;DHT22;10615;42.702;23.314;2023-08-24T04:16:53;21.50;90.10
20911;DHT22;10615;42.702;23.314;2023-08-24T04:17:54;21.60;90.00
20911;DHT22;10615;42.702;23.314;2023-08-24T04:18:55;21.60;89.90
20911;DHT22;10615;42.702;23.314;2023-08-24T04:19:55;21.60;89.70
20911;DHT22;10615;42.702;23.314;2023-08-24T04:20:56;21.70;89.50
20911;DHT22;10615;42.702;23.314;2023-08-24T04:21:57;21.70;89.30
20911;DHT22;10615;42.702;23.314;2023-08-24T04:22:57;21.70;89.20
20911;DHT22;10615;42.702;23.314;2023-08-24T04:23:58;21.70;89.00
20911;DHT22;10615;42.702;23.314;2023-08-24T04:24:59;21.80;89.10
20911;DHT22;10615;42.702;23.314;2023-08-24T04:26:00;21.80;88.90
20911;DHT22;10615;42.702;23.314;2023-08-24T04:27:01;21.80;88.80
20911;DHT22;10615;42.702;23.314;2023-08-24T04:28:02;21.90;88.50
20911;DHT22;10615;42.702;23.314;2023-08-24T04:29:02;22.00;88.40
20911;DHT22;10615;42.702;23.314;2023-08-24T04:30:03;22.00;88.20
20911;DHT22;10615;42.702;23.314;2023-08-24T04:31:04;22.00;87.90
20911;DHT22;10615;42.702;23.314;2023-08-24T04:32:06;22.10;87.60
20911;DHT22;10615;42.702;23.314;2023-08-24T04:33:06;22.10;87.20
20911;DHT22;10615;42.702;23.314;2023-08-24T04:34:07;22.20;86.90
20911;DHT22;10615;42.702;23.314;2023-08-24T04:35:08;22.20;86.60
20911;DHT22;10615;42.702;23.314;2023-08-24T04:36:09;22.20;86.30
20911;DHT22;10615;42.702;23.314;2023-08-24T04:37:09;22.30;86.00
20911;DHT22;10615;42.702;23.314;2023-08-24T04:38:10;22.30;86.00
20911;DHT22;10615;42.702;23.314;2023-08-24T04:39:11;22.30;85.50
20911;DHT22;10615;42.702;23.314;2023-08-24T04:40:11;22.40;85.30
20911;DHT22;10615;42.702;23.314;2023-08-24T04:41:12;22.40;85.00
20911;DHT22;10615;42.702;23.314;2023-08-24T04:42:13;22.40;84.70
20911;DHT22;10615;42.702;23.314;2023-08-24T04:43:13;22.30;84.60
20911;DHT22;10615;42.702;23.314;2023-08-24T04:44:14;22.40;84.80
20911;DHT22;10615;42.702;23.314;2023-08-24T04:45:15;22.40;84.80
20911;DHT22;10615;42.702;23.314;2023-08-24T04:46:15;22.40;84.50
20911;DHT22;10615;42.702;23.314;2023-08-24T04:47:16;22.40;84.40
20911;DHT22;10615;42.702;23.314;2023-08-24T04:48:17;22.40;84.30
20911;DHT22;10615;42.702;23.314;2023-08-24T04:49:18;22.40;84.00
20911;DHT22;10615;42.702;23.314;2023-08-24T04:50:18;22.40;83.90
20911;DHT22;10615;42.702;23.314;2023-08-24T04:51:19;22.40;83.80
20911;DHT22;10615;42.702;23.314;2023-08-24T04:52:20;22.40;83.60
20911;DHT22;10615;42.702;23.314;2023-08-24T04:53:20;22.50;83.70
20911;DHT22;10615;42.702;23.314;2023-08-24T04:54:21;22.50;83.60
20911;DHT22;10615;42.702;23.314;2023-08-24T04:55:22;22.50;83.60
20911;DHT22;10615;42.702;23.314;2023-08-24T04:56:23;22.50;83.60
20911;DHT22;10615;42.702;23.314;2023-08-24T04:57:24;22.50;83.60
20911;DHT22;10615;42.702;23.314;2023-08-24T04:58:24;22.50;83.60
20911;DHT22;10615;42.702;23.314;2023-08-24T04:59:26;22.50;83.50
20911;DHT22;10615;42.702;23.314;2023-08-24T05:00:26;22.60;83.30
20911;DHT22;10615;42.702;23.314;2023-08-24T05:01:27;22.60;83.20
20911;DHT22;10615;42.702;23.314;2023-08-24T05:02:28;22.70;83.10
20911;DHT22;10615;42.702;23.314;2023-08-24T05:03:29;22.80;82.80
20911;DHT22;10615;42.702;23.314;2023-08-24T05:04:29;22.80;82.60
20911;DHT22;10615;42.702;23.314;2023-08-24T05:05:31;22.90;82.30
20911;DHT22;10615;42.702;23.314;2023-08-24T05:06:31;23.00;82.00
20911;DHT22;10615;42.702;23.314;2023-08-24T05:07:33;23.00;81.60
20911;DHT22;10615;42.702;23.314;2023-08-24T05:08:33;23.00;81.30
20911;DHT22;10615;42.702;23.314;2023-08-24T05:09:34;23.10;80.90
20911;DHT22;10615;42.702;23.314;2023-08-24T05:10:35;23.10;80.60
20911;DHT22;10615;42.702;23.314;2023-08-24T05:11:36;23.10;80.40
20911;DHT22;10615;42.702;23.314;2023-08-24T05:12:37;23.00;80.20
20911;DHT22;10615;42.702;23.314;2023-08-24T05:13:37;23.00;80.20
20911;DHT22;10615;42.702;23.314;2023-08-24T05:14:38;23.00;80.20
20911;DHT22;10615;42.702;23.314;2023-08-24T05:15:39;23.00;80.30
20911;DHT22;10615;42.702;23.314;2023-08-24T05:16:39;23.00;80.40
20911;DHT22;10615;42.702;23.314;2023-08-24T05:17:40;23.00;80.40
20911;DHT22;10615;42.702;23.314;2023-08-24T05:18:41;23.00;80.40
20911;DHT22;10615;42.702;23.314;2023-08-24T05:19:42;23.00;80.40
20911;DHT22;10615;42.702;23.314;2023-08-24T05:20:42;23.00;80.50
20911;DHT22;10615;42.702;23.314;2023-08-24T05:21:43;23.00;80.50
20911;DHT22;10615;42.702;23.314;2023-08-24T05:22:44;23.00;80.70
20911;DHT22;10615;42.702;23.314;2023-08-24T05:23:44;23.00;80.80
20911;DHT22;10615;42.702;23.314;2023-08-24T05:24:46;23.00;80.70
20911;DHT22;10615;42.702;23.314;2023-08-24T05:25:46;23.00;80.60
20911;DHT22;10615;42.702;23.314;2023-08-24T05:26:47;23.00;80.70
20911;DHT22;10615;42.702;23.314;2023-08-24T05:27:48;23.00;80.60
20911;DHT22;10615;42.702;23.314;2023-08-24T05:28:49;23.00;80.50
20911;DHT22;10615;42.702;23.314;2023-08-24T05:29:49;23.10;80.60
20911;DHT22;10615;42.702;23.314;2023-08-24T05:30:51;23.10;80.60
20911;DHT22;10615;42.702;23.314;2023-08-24T05:31:54;23.00;80.50
20911;DHT22;10615;42.702;23.314;2023-08-24T05:32:55;23.00;80.40
20911;DHT22;10615;42.702;23.314;2023-08-24T05:33:55;23.00;80.20
20911;DHT22;10615;42.702;23.314;2023-08-24T05:34:56;23.00;80.30
20911;DHT22;10615;42.702;23.314;2023-08-24T05:35:57;23.00;80.40
20911;DHT22;10615;42.702;23.314;2023-08-24T05:36:59;23.00;80.40
20911;DHT22;10615;42.702;23.314;2023-08-24T05:37:59;23.10;80.50
20911;DHT22;10615;42.702;23.314;2023-08-24T05:39:00;23.10;80.40
20911;DHT22;10615;42.702;23.314;2023-08-24T05:40:02;23.30;80.10
20911;DHT22;10615;42.702;23.314;2023-08-24T05:41:03;23.30;79.60
20911;DHT22;10615;42.702;23.314;2023-08-24T05:42:05;23.40;79.20
20911;DHT22;10615;42.702;23.314;2023-08-24T05:43:05;23.40;78.80
20911;DHT22;10615;42.702;23.314;2023-08-24T05:44:06;23.50;78.50
20911;DHT22;10615;42.702;23.314;2023-08-24T05:45:07;23.50;78.20
20911;DHT22;10615;42.702;23.314;2023-08-24T05:46:08;23.60;77.90
20911;DHT22;10615;42.702;23.314;2023-08-24T05:47:08;23.60;77.80
20911;DHT22;10615;42.702;23.314;2023-08-24T05:48:09;23.70;77.50
20911;DHT22;10615;42.702;23.314;2023-08-24T05:49:10;23.80;77.30
20911;DHT22;10615;42.702;23.314;2023-08-24T05:50:11;23.80;76.90
20911;DHT22;10615;42.702;23.314;2023-08-24T05:51:14;23.90;76.60
20911;DHT22;10615;42.702;23.314;2023-08-24T05:52:15;24.10;76.30
20911;DHT22;10615;42.702;23.314;2023-08-24T05:53:15;24.20;75.60
20911;DHT22;10615;42.702;23.314;2023-08-24T05:54:16;24.50;75.00
20911;DHT22;10615;42.702;23.314;2023-08-24T05:55:20;24.70;74.40
20911;DHT22;10615;42.702;23.314;2023-08-24T05:56:21;24.90;73.40
20911;DHT22;10615;42.702;23.314;2023-08-24T05:57:22;25.10;72.60
20911;DHT22;10615;42.702;23.314;2023-08-24T05:58:23;25.40;71.70
20911;DHT22;10615;42.702;23.314;2023-08-24T05:59:23;25.80;71.00
20911;DHT22;10615;42.702;23.314;2023-08-24T06:00:24;26.40;70.10
20911;DHT22;10615;42.702;23.314;2023-08-24T06:01:25;27.20;68.50
20911;DHT22;10615;42.702;23.314;2023-08-24T06:02:26;28.20;66.60
20911;DHT22;10615;42.702;23.314;2023-08-24T06:03:26;29.40;64.30
20911;DHT22;10615;42.702;23.314;2023-08-24T06:04:27;30.40;61.20
20911;DHT22;10615;42.702;23.314;2023-08-24T06:05:29;31.10;58.20
20911;DHT22;10615;42.702;23.314;2023-08-24T06:06:30;31.40;55.70
20911;DHT22;10615;42.702;23.314;2023-08-24T06:07:30;31.60;54.20
20911;DHT22;10615;42.702;23.314;2023-08-24T06:08:31;31.80;53.10
20911;DHT22;10615;42.702;23.314;2023-08-24T06:09:32;32.20;52.50
20911;DHT22;10615;42.702;23.314;2023-08-24T06:10:33;33.00;51.70
20911;DHT22;10615;42.702;23.314;2023-08-24T06:11:34;34.00;50.60
20911;DHT22;10615;42.702;23.314;2023-08-24T06:12:35;35.30;49.00
20911;DHT22;10615;42.702;23.314;2023-08-24T06:13:35;36.30;46.80
20911;DHT22;10615;42.702;23.314;2023-08-24T06:14:36;37.00;44.90
20911;DHT22;10615;42.702;23.314;2023-08-24T06:15:37;37.70;43.40
20911;DHT22;10615;42.702;23.314;2023-08-24T06:16:38;38.40;42.10
20911;DHT22;10615;42.702;23.314;2023-08-24T06:17:38;39.00;40.70
20911;DHT22;10615;42.702;23.314;2023-08-24T06:18:39;39.70;39.70
20911;DHT22;10615;42.702;23.314;2023-08-24T06:19:40;40.40;38.50
20911;DHT22;10615;42.702;23.314;2023-08-24T06:20:41;41.00;37.20
20911;DHT22;10615;42.702;23.314;2023-08-24T06:21:42;41.40;35.80
20911;DHT22;10615;42.702;23.314;2023-08-24T06:22:43;41.20;34.80
20911;DHT22;10615;42.702;23.314;2023-08-24T06:23:43;40.80;34.80
20911;DHT22;10615;42.702;23.314;2023-08-24T06:24:45;40.30;34.80
20911;DHT22;10615;42.702;23.314;2023-08-24T06:25:46;40.20;35.20
20911;DHT22;10615;42.702;23.314;2023-08-24T06:26:46;40.40;35.40